sensor_id;sensor_type;location;lat;lon;timestamp;temperature;humidity
8850;DHT22;5638;50.860;4.698;2022-11-15T00:00:53;11.80;99.90
8850;DHT22;5638;50.860;4.698;2022-11-15T00:03:21;11.80;99.90
8850;DHT22;5638;50.860;4.698;2022-11-15T00:05:48;11.80;99.90
8850;DHT22;5638;50.860;4.698;2022-11-15T00:08:15;11.80;99.90
8850;DHT22;5638;50.860;4.698;2022-11-15T00:10:41;11.80;99.90
8850;DHT22;5638;50.860;4.698;2022-11-15T00:13:09;11.90;99.90
8850;DHT22;5638;50.860;4.698;2022-11-15T00:15:40;11.80;99.90
8850;DHT22;5638;50.860;4.698;2022-11-15T00:18:15;11.80;99.90
8850;DHT22;5638;50.860;4.698;2022-11-15T00:20:42;11.90;99.90
8850;DHT22;5638;50.860;4.698;2022-11-15T00:23:08;11.90;99.90
8850;DHT22;5638;50.860;4.698;2022-11-15T00:25:35;11.90;99.90
8850;DHT22;5638;50.860;4.698;2022-11-15T00:28:01;11.90;99.90
8850;DHT22;5638;50.860;4.698;2022-11-15T00:30:27;11.90;99.90
8850;DHT22;5638;50.860;4.698;2022-11-15T00:32:54;11.90;99.90
8850;DHT22;5638;50.860;4.698;2022-11-15T00:35:20;11.90;99.90
8850;DHT22;5638;50.860;4.698;2022-11-15T00:37:47;11.90;99.90
8850;DHT22;5638;50.860;4.698;2022-11-15T00:40:14;11.90;99.90
8850;DHT22;5638;50.860;4.698;2022-11-15T00:42:41;11.90;99.90
8850;DHT22;5638;50.860;4.698;2022-11-15T00:45:10;11.90;99.90
8850;DHT22;5638;50.860;4.698;2022-11-15T00:47:35;11.90;99.90
8850;DHT22;5638;50.860;4.698;2022-11-15T00:50:01;11.90;99.90
8850;DHT22;5638;50.860;4.698;2022-11-15T00:52:27;12.00;99.90
8850;DHT22;5638;50.860;4.698;2022-11-15T00:54:53;12.00;99.90
8850;DHT22;5638;50.860;4.698;2022-11-15T00:57:19;12.10;99.90
8850;DHT22;5638;50.860;4.698;2022-11-15T00:59:44;12.00;99.90
8850;DHT22;5638;50.860;4.698;2022-11-15T01:02:10;12.00;99.90
8850;DHT22;5638;50.860;4.698;2022-11-15T01:04:36;12.00;99.90
8850;DHT22;5638;50.860;4.698;2022-11-15T01:07:02;12.10;99.90
8850;DHT22;5638;50.860;4.698;2022-11-15T01:09:28;12.10;99.90
8850;DHT22;5638;50.860;4.698;2022-11-15T01:11:54;12.10;99.90
8850;DHT22;5638;50.860;4.698;2022-11-15T01:14:21;12.10;99.90
8850;DHT22;5638;50.860;4.698;2022-11-15T01:16:47;12.10;99.90
8850;DHT22;5638;50.860;4.698;2022-11-15T01:19:15;12.10;99.90
8850;DHT22;5638;50.860;4.698;2022-11-15T01:21:41;12.10;99.90
8850;DHT22;5638;50.860;4.698;2022-11-15T01:24:09;12.10;99.90
8850;DHT22;5638;50.860;4.698;2022-11-15T01:26:38;12.10;99.90
8850;DHT22;5638;50.860;4.698;2022-11-15T01:29:04;12.10;99.90
8850;DHT22;5638;50.860;4.698;2022-11-15T01:31:30;12.10;99.90
8850;DHT22;5638;50.860;4.698;2022-11-15T01:33:56;12.20;99.90
8850;DHT22;5638;50.860;4.698;2022-11-15T01:36:22;12.30;99.90
8850;DHT22;5638;50.860;4.698;2022-11-15T01:38:56;12.20;99.90
8850;DHT22;5638;50.860;4.698;2022-11-15T01:41:26;12.30;99.90
8850;DHT22;5638;50.860;4.698;2022-11-15T01:43:57;12.30;99.90
8850;DHT22;5638;50.860;4.698;2022-11-15T01:46:46;12.40;99.90
8850;DHT22;5638;50.860;4.698;2022-11-15T01:49:17;12.40;99.90
8850;DHT22;5638;50.860;4.698;2022-11-15T01:51:45;12.40;99.90
8850;DHT22;5638;50.860;4.698;2022-11-15T01:54:15;12.30;99.90
8850;DHT22;5638;50.860;4.698;2022-11-15T01:56:54;12.30;99.90
8850;DHT22;5638;50.860;4.698;2022-11-15T01:59:27;12.30;99.90
8850;DHT22;5638;50.860;4.698;2022-11-15T02:01:53;12.40;99.90
8850;DHT22;5638;50.860;4.698;2022-11-15T02:06:55;12.40;99.90
8850;DHT22;5638;50.860;4.698;2022-11-15T02:09:21;12.30;99.90
8850;DHT22;5638;50.860;4.698;2022-11-15T02:11:48;12.30;99.90
8850;DHT22;5638;50.860;4.698;2022-11-15T02:14:20;12.30;99.90
8850;DHT22;5638;50.860;4.698;2022-11-15T02:17:02;12.30;99.90
8850;DHT22;5638;50.860;4.698;2022-11-15T02:32:44;12.40;99.90
8850;DHT22;5638;50.860;4.698;2022-11-15T02:35:37;12.40;99.90
8850;DHT22;5638;50.860;4.698;2022-11-15T02:41:04;12.40;99.90
8850;DHT22;5638;50.860;4.698;2022-11-15T02:46:31;12.40;99.90
8850;DHT22;5638;50.860;4.698;2022-11-15T02:49:17;12.40;99.90
8850;DHT22;5638;50.860;4.698;2022-11-15T02:51:45;12.30;99.90
8850;DHT22;5638;50.860;4.698;2022-11-15T02:54:24;12.30;99.90
8850;DHT22;5638;50.860;4.698;2022-11-15T02:57:05;12.30;99.90
8850;DHT22;5638;50.860;4.698;2022-11-15T02:59:57;12.30;99.90
8850;DHT22;5638;50.860;4.698;2022-11-15T03:02:57;12.30;99.90
8850;DHT22;5638;50.860;4.698;2022-11-15T03:05:56;12.30;99.90
8850;DHT22;5638;50.860;4.698;2022-11-15T03:11:56;12.30;99.90
8850;DHT22;5638;50.860;4.698;2022-11-15T03:14:34;12.30;99.90
8850;DHT22;5638;50.860;4.698;2022-11-15T03:17:24;12.30;99.90
8850;DHT22;5638;50.860;4.698;2022-11-15T03:20:06;12.30;99.90
8850;DHT22;5638;50.860;4.698;2022-11-15T03:22:37;12.30;99.90
8850;DHT22;5638;50.860;4.698;2022-11-15T03:25:10;12.30;99.90
8850;DHT22;5638;50.860;4.698;2022-11-15T03:27:47;12.30;99.90
8850;DHT22;5638;50.860;4.698;2022-11-15T03:30:17;12.30;99.90
8850;DHT22;5638;50.860;4.698;2022-11-15T03:32:50;12.30;99.90
8850;DHT22;5638;50.860;4.698;2022-11-15T03:35:25;12.30;99.90
8850;DHT22;5638;50.860;4.698;2022-11-15T03:40:59;12.30;99.90
8850;DHT22;5638;50.860;4.698;2022-11-15T03:46:26;12.30;99.90
8850;DHT22;5638;50.860;4.698;2022-11-15T03:49:17;12.30;99.90
8850;DHT22;5638;50.860;4.698;2022-11-15T03:51:50;12.40;99.90
8850;DHT22;5638;50.860;4.698;2022-11-15T03:54:16;12.40;99.90
8850;DHT22;5638;50.860;4.698;2022-11-15T03:56:41;12.30;99.90
8850;DHT22;5638;50.860;4.698;2022-11-15T03:59:07;12.30;99.90
8850;DHT22;5638;50.860;4.698;2022-11-15T04:01:33;12.30;99.90
8850;DHT22;5638;50.860;4.698;2022-11-15T04:03:59;12.30;99.90
8850;DHT22;5638;50.860;4.698;2022-11-15T04:06:25;12.20;99.90
8850;DHT22;5638;50.860;4.698;2022-11-15T04:08:51;12.30;99.90
8850;DHT22;5638;50.860;4.698;2022-11-15T04:11:16;12.30;99.90
8850;DHT22;5638;50.860;4.698;2022-11-15T04:13:42;12.20;99.90
8850;DHT22;5638;50.860;4.698;2022-11-15T04:16:08;12.30;99.90
8850;DHT22;5638;50.860;4.698;2022-11-15T04:18:34;12.20;99.90
8850;DHT22;5638;50.860;4.698;2022-11-15T04:20:59;12.20;99.90
8850;DHT22;5638;50.860;4.698;2022-11-15T04:23:44;12.20;99.90
8850;DHT22;5638;50.860;4.698;2022-11-15T04:26:20;12.20;99.90
8850;DHT22;5638;50.860;4.698;2022-11-15T04:28:48;12.20;99.90
8850;DHT22;5638;50.860;4.698;2022-11-15T04:31:33;12.20;99.90
8850;DHT22;5638;50.860;4.698;2022-11-15T04:33:58;12.20;99.90
8850;DHT22;5638;50.860;4.698;2022-11-15T04:36:25;12.30;99.90
8850;DHT22;5638;50.860;4.698;2022-11-15T04:39:09;12.30;99.90
8850;DHT22;5638;50.860;4.698;2022-11-15T04:41:35;12.20;99.90
8850;DHT22;5638;50.860;4.698;2022-11-15T04:44:01;12.10;99.90
8850;DHT22;5638;50.860;4.698;2022-11-15T04:46:27;12.10;99.90
8850;DHT22;5638;50.860;4.698;2022-11-15T04:48:54;12.10;99.90
8850;DHT22;5638;50.860;4.698;2022-11-15T04:51:20;12.00;99.90
8850;DHT22;5638;50.860;4.698;2022-11-15T04:53:46;12.00;99.90
8850;DHT22;5638;50.860;4.698;2022-11-15T04:56:12;11.90;99.90
8850;DHT22;5638;50.860;4.698;2022-11-15T04:58:38;12.00;99.90
8850;DHT22;5638;50.860;4.698;2022-11-15T05:01:12;12.00;99.90
8850;DHT22;5638;50.860;4.698;2022-11-15T05:03:44;12.00;99.90
8850;DHT22;5638;50.860;4.698;2022-11-15T05:06:29;11.90;99.90
8850;DHT22;5638;50.860;4.698;2022-11-15T05:08:55;11.90;99.90
8850;DHT22;5638;50.860;4.698;2022-11-15T05:11:22;11.90;99.90
8850;DHT22;5638;50.860;4.698;2022-11-15T05:13:48;11.90;99.90
8850;DHT22;5638;50.860;4.698;2022-11-15T05:16:14;11.90;99.90
8850;DHT22;5638;50.860;4.698;2022-11-15T05:18:40;11.80;99.90
8850;DHT22;5638;50.860;4.698;2022-11-15T05:21:09;11.80;99.90
8850;DHT22;5638;50.860;4.698;2022-11-15T05:23:37;11.80;99.90
8850;DHT22;5638;50.860;4.698;2022-11-15T05:26:05;11.70;99.90
8850;DHT22;5638;50.860;4.698;2022-11-15T05:28:32;11.70;99.90
8850;DHT22;5638;50.860;4.698;2022-11-15T05:31:02;11.70;99.90
8850;DHT22;5638;50.860;4.698;2022-11-15T05:33:30;11.70;99.90
8850;DHT22;5638;50.860;4.698;2022-11-15T05:36:31;11.70;99.90
8850;DHT22;5638;50.860;4.698;2022-11-15T05:39:07;11.70;99.90
8850;DHT22;5638;50.860;4.698;2022-11-15T05:41:44;11.70;99.90
8850;DHT22;5638;50.860;4.698;2022-11-15T05:44:18;11.70;99.90
8850;DHT22;5638;50.860;4.698;2022-11-15T05:46:47;11.60;99.90
8850;DHT22;5638;50.860;4.698;2022-11-15T05:49:18;11.60;99.90
8850;DHT22;5638;50.860;4.698;2022-11-15T05:51:48;11.60;99.90
8850;DHT22;5638;50.860;4.698;2022-11-15T05:54:16;11.50;99.90
8850;DHT22;5638;50.860;4.698;2022-11-15T05:56:43;11.50;99.90
8850;DHT22;5638;50.860;4.698;2022-11-15T05:59:09;11.40;99.90
8850;DHT22;5638;50.860;4.698;2022-11-15T06:01:37;11.40;99.90
8850;DHT22;5638;50.860;4.698;2022-11-15T06:04:04;11.40;99.90
8850;DHT22;5638;50.860;4.698;2022-11-15T06:06:30;11.40;99.90
8850;DHT22;5638;50.860;4.698;2022-11-15T06:08:56;11.40;99.90
8850;DHT22;5638;50.860;4.698;2022-11-15T06:11:21;11.40;99.90
8850;DHT22;5638;50.860;4.698;2022-11-15T06:13:47;11.30;99.90
8850;DHT22;5638;50.860;4.698;2022-11-15T06:16:13;11.30;99.90
8850;DHT22;5638;50.860;4.698;2022-11-15T06:18:39;11.30;99.90
8850;DHT22;5638;50.860;4.698;2022-11-15T06:21:06;11.30;99.90
8850;DHT22;5638;50.860;4.698;2022-11-15T06:23:33;11.30;99.90
8850;DHT22;5638;50.860;4.698;2022-11-15T06:26:01;11.30;99.90
8850;DHT22;5638;50.860;4.698;2022-11-15T06:28:30;11.20;99.90
8850;DHT22;5638;50.860;4.698;2022-11-15T06:31:03;11.20;99.90
8850;DHT22;5638;50.860;4.698;2022-11-15T06:33:32;11.20;99.90
8850;DHT22;5638;50.860;4.698;2022-11-15T06:36:07;11.10;99.90
8850;DHT22;5638;50.860;4.698;2022-11-15T06:38:35;11.00;99.90
8850;DHT22;5638;50.860;4.698;2022-11-15T06:41:06;11.10;99.90
8850;DHT22;5638;50.860;4.698;2022-11-15T06:43:34;11.00;99.90
8850;DHT22;5638;50.860;4.698;2022-11-15T06:46:02;11.00;99.90
8850;DHT22;5638;50.860;4.698;2022-11-15T06:48:31;11.00;99.90
8850;DHT22;5638;50.860;4.698;2022-11-15T06:51:01;11.00;99.90
8850;DHT22;5638;50.860;4.698;2022-11-15T06:53:30;11.00;99.90
8850;DHT22;5638;50.860;4.698;2022-11-15T06:56:00;11.00;99.90
8850;DHT22;5638;50.860;4.698;2022-11-15T06:58:28;10.90;99.90
8850;DHT22;5638;50.860;4.698;2022-11-15T07:00:58;11.00;99.90
8850;DHT22;5638;50.860;4.698;2022-11-15T07:03:25;10.90;99.90
8850;DHT22;5638;50.860;4.698;2022-11-15T07:05:53;10.90;99.90
8850;DHT22;5638;50.860;4.698;2022-11-15T07:08:22;10.90;99.90
8850;DHT22;5638;50.860;4.698;2022-11-15T07:10:49;10.90;99.90
8850;DHT22;5638;50.860;4.698;2022-11-15T07:13:15;10.80;99.90
8850;DHT22;5638;50.860;4.698;2022-11-15T07:15:41;10.90;99.90
8850;DHT22;5638;50.860;4.698;2022-11-15T07:18:07;10.80;99.90
8850;DHT22;5638;50.860;4.698;2022-11-15T07:20:33;10.90;99.90
8850;DHT22;5638;50.860;4.698;2022-11-15T07:23:03;10.80;99.90
8850;DHT22;5638;50.860;4.698;2022-11-15T07:25:31;10.80;99.90
8850;DHT22;5638;50.860;4.698;2022-11-15T07:27:58;10.70;99.90
8850;DHT22;5638;50.860;4.698;2022-11-15T07:30:25;10.70;99.90
8850;DHT22;5638;50.860;4.698;2022-11-15T07:32:59;10.80;99.90
8850;DHT22;5638;50.860;4.698;2022-11-15T07:35:27;10.80;99.90
8850;DHT22;5638;50.860;4.698;2022-11-15T07:38:03;10.80;99.90
8850;DHT22;5638;50.860;4.698;2022-11-15T07:40:31;10.80;99.90
8850;DHT22;5638;50.860;4.698;2022-11-15T07:43:05;10.90;99.90
8850;DHT22;5638;50.860;4.698;2022-11-15T07:45:32;10.90;99.90
8850;DHT22;5638;50.860;4.698;2022-11-15T07:48:01;11.00;99.90
8850;DHT22;5638;50.860;4.698;2022-11-15T07:50:27;10.90;99.90
8850;DHT22;5638;50.860;4.698;2022-11-15T07:52:56;10.90;99.90
8850;DHT22;5638;50.860;4.698;2022-11-15T07:55:25;10.90;99.90
8850;DHT22;5638;50.860;4.698;2022-11-15T07:57:53;10.90;99.90
8850;DHT22;5638;50.860;4.698;2022-11-15T08:00:26;11.00;99.90
8850;DHT22;5638;50.860;4.698;2022-11-15T08:02:51;11.20;99.90
8850;DHT22;5638;50.860;4.698;2022-11-15T08:05:17;11.20;99.90
8850;DHT22;5638;50.860;4.698;2022-11-15T08:07:43;11.30;99.90
8850;DHT22;5638;50.860;4.698;2022-11-15T08:10:09;11.30;99.90
8850;DHT22;5638;50.860;4.698;2022-11-15T08:12:36;11.60;99.90
8850;DHT22;5638;50.860;4.698;2022-11-15T08:15:02;11.80;99.90
8850;DHT22;5638;50.860;4.698;2022-11-15T08:17:28;11.80;99.90
8850;DHT22;5638;50.860;4.698;2022-11-15T08:19:58;11.70;99.90
8850;DHT22;5638;50.860;4.698;2022-11-15T08:22:24;12.00;99.90
8850;DHT22;5638;50.860;4.698;2022-11-15T08:24:50;12.20;99.90
8850;DHT22;5638;50.860;4.698;2022-11-15T08:27:16;12.40;99.90
8850;DHT22;5638;50.860;4.698;2022-11-15T08:29:43;12.30;99.90
8850;DHT22;5638;50.860;4.698;2022-11-15T08:32:10;12.20;99.90
8850;DHT22;5638;50.860;4.698;2022-11-15T08:34:37;12.30;99.90
8850;DHT22;5638;50.860;4.698;2022-11-15T08:37:04;12.50;99.90
8850;DHT22;5638;50.860;4.698;2022-11-15T08:39:30;12.60;99.90
8850;DHT22;5638;50.860;4.698;2022-11-15T08:41:56;12.60;99.90
8850;DHT22;5638;50.860;4.698;2022-11-15T08:44:22;12.50;99.90
8850;DHT22;5638;50.860;4.698;2022-11-15T08:46:49;12.40;99.90
8850;DHT22;5638;50.860;4.698;2022-11-15T08:49:16;12.30;99.90
8850;DHT22;5638;50.860;4.698;2022-11-15T08:51:42;12.20;99.90
8850;DHT22;5638;50.860;4.698;2022-11-15T08:54:08;12.10;99.90
8850;DHT22;5638;50.860;4.698;2022-11-15T08:56:33;12.10;99.90
8850;DHT22;5638;50.860;4.698;2022-11-15T08:58:59;12.10;99.90
8850;DHT22;5638;50.860;4.698;2022-11-15T09:01:25;12.20;99.90
8850;DHT22;5638;50.860;4.698;2022-11-15T09:03:51;12.00;99.90
8850;DHT22;5638;50.860;4.698;2022-11-15T09:06:18;11.90;99.90
8850;DHT22;5638;50.860;4.698;2022-11-15T09:08:44;11.80;99.90
8850;DHT22;5638;50.860;4.698;2022-11-15T09:11:10;11.70;99.90
8850;DHT22;5638;50.860;4.698;2022-11-15T09:13:36;11.80;99.90
8850;DHT22;5638;50.860;4.698;2022-11-15T09:16:03;12.00;99.90
8850;DHT22;5638;50.860;4.698;2022-11-15T09:18:30;12.40;99.90
8850;DHT22;5638;50.860;4.698;2022-11-15T09:20:57;12.60;99.90
8850;DHT22;5638;50.860;4.698;2022-11-15T09:23:25;12.80;99.90
8850;DHT22;5638;50.860;4.698;2022-11-15T09:25:52;13.10;99.90
8850;DHT22;5638;50.860;4.698;2022-11-15T09:28:23;13.50;99.90
8850;DHT22;5638;50.860;4.698;2022-11-15T09:30:48;13.70;99.90
8850;DHT22;5638;50.860;4.698;2022-11-15T09:33:14;13.70;99.90
8850;DHT22;5638;50.860;4.698;2022-11-15T09:35:40;13.60;99.90
8850;DHT22;5638;50.860;4.698;2022-11-15T09:38:06;13.60;99.90
8850;DHT22;5638;50.860;4.698;2022-11-15T09:40:36;13.70;99.90
8850;DHT22;5638;50.860;4.698;2022-11-15T09:43:29;13.80;99.90
8850;DHT22;5638;50.860;4.698;2022-11-15T09:56:46;14.80;99.90
8850;DHT22;5638;50.860;4.698;2022-11-15T09:59:36;15.00;99.90
8850;DHT22;5638;50.860;4.698;2022-11-15T10:02:42;15.00;99.90
8850;DHT22;5638;50.860;4.698;2022-11-15T10:05:13;14.80;99.90
8850;DHT22;5638;50.860;4.698;2022-11-15T10:08:18;14.80;99.90
8850;DHT22;5638;50.860;4.698;2022-11-15T10:11:01;14.50;99.90
8850;DHT22;5638;50.860;4.698;2022-11-15T10:13:41;14.70;99.90
8850;DHT22;5638;50.860;4.698;2022-11-15T10:16:34;14.70;99.90
8850;DHT22;5638;50.860;4.698;2022-11-15T10:22:26;15.30;99.90
8850;DHT22;5638;50.860;4.698;2022-11-15T10:25:16;15.50;99.90
8850;DHT22;5638;50.860;4.698;2022-11-15T10:30:49;15.10;99.90
8850;DHT22;5638;50.860;4.698;2022-11-15T10:33:37;14.60;99.90
8850;DHT22;5638;50.860;4.698;2022-11-15T10:41:17;13.90;99.90
8850;DHT22;5638;50.860;4.698;2022-11-15T10:43:45;14.20;99.90
8850;DHT22;5638;50.860;4.698;2022-11-15T10:46:28;14.30;99.90
8850;DHT22;5638;50.860;4.698;2022-11-15T10:49:15;14.60;99.90
8850;DHT22;5638;50.860;4.698;2022-11-15T10:54:54;14.90;99.90
8850;DHT22;5638;50.860;4.698;2022-11-15T10:57:27;14.80;99.90
8850;DHT22;5638;50.860;4.698;2022-11-15T11:00:25;14.60;99.90
8850;DHT22;5638;50.860;4.698;2022-11-15T11:05:39;14.50;99.90
8850;DHT22;5638;50.860;4.698;2022-11-15T11:10:38;14.40;99.90
8850;DHT22;5638;50.860;4.698;2022-11-15T11:13:25;14.40;99.90
8850;DHT22;5638;50.860;4.698;2022-11-15T11:21:51;14.10;99.90
8850;DHT22;5638;50.860;4.698;2022-11-15T11:25:18;13.90;99.90
8850;DHT22;5638;50.860;4.698;2022-11-15T11:28:14;13.70;99.90
8850;DHT22;5638;50.860;4.698;2022-11-15T11:31:17;13.60;99.90
8850;DHT22;5638;50.860;4.698;2022-11-15T11:34:04;13.50;99.90
8850;DHT22;5638;50.860;4.698;2022-11-15T11:36:51;13.60;99.90
8850;DHT22;5638;50.860;4.698;2022-11-15T11:43:34;13.50;99.90
8850;DHT22;5638;50.860;4.698;2022-11-15T11:49:03;13.60;99.90
8850;DHT22;5638;50.860;4.698;2022-11-15T11:54:58;13.60;99.90
8850;DHT22;5638;50.860;4.698;2022-11-15T11:57:48;13.60;99.90
8850;DHT22;5638;50.860;4.698;2022-11-15T12:00:24;13.60;99.90
8850;DHT22;5638;50.860;4.698;2022-11-15T12:03:05;13.70;99.90
8850;DHT22;5638;50.860;4.698;2022-11-15T12:06:02;13.70;99.90
8850;DHT22;5638;50.860;4.698;2022-11-15T12:08:50;13.70;99.90
8850;DHT22;5638;50.860;4.698;2022-11-15T12:11:52;13.80;99.90
8850;DHT22;5638;50.860;4.698;2022-11-15T12:17:11;13.70;99.90
8850;DHT22;5638;50.860;4.698;2022-11-15T12:19:39;13.70;99.90
8850;DHT22;5638;50.860;4.698;2022-11-15T12:28:37;13.70;99.90
8850;DHT22;5638;50.860;4.698;2022-11-15T12:31:23;13.60;99.90
8850;DHT22;5638;50.860;4.698;2022-11-15T12:33:57;13.70;99.90
8850;DHT22;5638;50.860;4.698;2022-11-15T12:38:51;13.60;99.90
8850;DHT22;5638;50.860;4.698;2022-11-15T12:41:22;13.60;99.90
8850;DHT22;5638;50.860;4.698;2022-11-15T12:43:53;13.60;99.90
8850;DHT22;5638;50.860;4.698;2022-11-15T12:59:53;13.70;99.90
8850;DHT22;5638;50.860;4.698;2022-11-15T13:17:56;13.90;99.90
8850;DHT22;5638;50.860;4.698;2022-11-15T13:20:23;13.90;99.90
8850;DHT22;5638;50.860;4.698;2022-11-15T13:30:41;13.90;99.90
8850;DHT22;5638;50.860;4.698;2022-11-15T13:33:34;13.90;99.90
8850;DHT22;5638;50.860;4.698;2022-11-15T13:36:09;13.90;99.90
8850;DHT22;5638;50.860;4.698;2022-11-15T13:38:40;13.90;99.90
8850;DHT22;5638;50.860;4.698;2022-11-15T13:41:21;13.90;99.90
8850;DHT22;5638;50.860;4.698;2022-11-15T13:43:52;13.90;99.90
8850;DHT22;5638;50.860;4.698;2022-11-15T13:51:49;14.00;99.90
8850;DHT22;5638;50.860;4.698;2022-11-15T13:54:25;14.00;99.90
8850;DHT22;5638;50.860;4.698;2022-11-15T14:00:02;14.00;99.90
8850;DHT22;5638;50.860;4.698;2022-11-15T14:02:32;14.00;99.90
8850;DHT22;5638;50.860;4.698;2022-11-15T14:05:22;14.10;99.90
8850;DHT22;5638;50.860;4.698;2022-11-15T14:07:59;14.00;99.90
8850;DHT22;5638;50.860;4.698;2022-11-15T14:13:02;13.90;99.90
8850;DHT22;5638;50.860;4.698;2022-11-15T14:15:33;14.00;99.90
8850;DHT22;5638;50.860;4.698;2022-11-15T14:18:01;14.00;99.90
8850;DHT22;5638;50.860;4.698;2022-11-15T14:23:02;14.10;99.90
8850;DHT22;5638;50.860;4.698;2022-11-15T14:25:31;14.00;99.90
8850;DHT22;5638;50.860;4.698;2022-11-15T14:28:28;14.10;99.90
8850;DHT22;5638;50.860;4.698;2022-11-15T14:31:00;14.10;99.90
8850;DHT22;5638;50.860;4.698;2022-11-15T14:33:36;14.00;99.90
8850;DHT22;5638;50.860;4.698;2022-11-15T14:36:18;14.00;99.90
8850;DHT22;5638;50.860;4.698;2022-11-15T14:38:46;13.90;99.90
8850;DHT22;5638;50.860;4.698;2022-11-15T14:41:24;13.90;99.90
8850;DHT22;5638;50.860;4.698;2022-11-15T14:43:52;13.90;99.90
8850;DHT22;5638;50.860;4.698;2022-11-15T14:46:18;13.80;99.90
8850;DHT22;5638;50.860;4.698;2022-11-15T14:48:45;13.70;99.90
8850;DHT22;5638;50.860;4.698;2022-11-15T14:51:13;13.70;99.90
8850;DHT22;5638;50.860;4.698;2022-11-15T14:53:41;13.70;99.90
8850;DHT22;5638;50.860;4.698;2022-11-15T14:56:08;13.70;99.90
8850;DHT22;5638;50.860;4.698;2022-11-15T14:58:34;13.70;99.90
8850;DHT22;5638;50.860;4.698;2022-11-15T15:01:08;13.70;99.90
8850;DHT22;5638;50.860;4.698;2022-11-15T15:03:36;13.70;99.90
8850;DHT22;5638;50.860;4.698;2022-11-15T15:06:01;13.70;99.90
8850;DHT22;5638;50.860;4.698;2022-11-15T15:08:27;13.70;99.90
8850;DHT22;5638;50.860;4.698;2022-11-15T15:10:53;13.70;99.90
8850;DHT22;5638;50.860;4.698;2022-11-15T15:13:21;13.70;99.90
8850;DHT22;5638;50.860;4.698;2022-11-15T15:15:49;13.60;99.90
8850;DHT22;5638;50.860;4.698;2022-11-15T15:18:17;13.60;99.90
8850;DHT22;5638;50.860;4.698;2022-11-15T15:20:45;13.60;99.90
8850;DHT22;5638;50.860;4.698;2022-11-15T15:23:19;13.50;99.90
8850;DHT22;5638;50.860;4.698;2022-11-15T15:25:47;13.50;99.90
8850;DHT22;5638;50.860;4.698;2022-11-15T15:28:14;13.50;99.90
8850;DHT22;5638;50.860;4.698;2022-11-15T15:30:40;13.50;99.90
8850;DHT22;5638;50.860;4.698;2022-11-15T15:33:06;13.40;99.90
8850;DHT22;5638;50.860;4.698;2022-11-15T15:35:33;13.40;99.90
8850;DHT22;5638;50.860;4.698;2022-11-15T15:38:00;13.40;99.90
8850;DHT22;5638;50.860;4.698;2022-11-15T15:40:28;13.30;99.90
8850;DHT22;5638;50.860;4.698;2022-11-15T15:42:56;13.30;99.90
8850;DHT22;5638;50.860;4.698;2022-11-15T15:45:22;13.30;99.90
8850;DHT22;5638;50.860;4.698;2022-11-15T15:47:51;13.30;99.90
8850;DHT22;5638;50.860;4.698;2022-11-15T15:50:20;13.40;99.90
8850;DHT22;5638;50.860;4.698;2022-11-15T15:52:56;13.30;99.90
8850;DHT22;5638;50.860;4.698;2022-11-15T15:55:24;13.20;99.90
8850;DHT22;5638;50.860;4.698;2022-11-15T15:57:50;13.30;99.90
8850;DHT22;5638;50.860;4.698;2022-11-15T16:00:17;13.20;99.90
8850;DHT22;5638;50.860;4.698;2022-11-15T16:02:44;13.20;99.90
8850;DHT22;5638;50.860;4.698;2022-11-15T16:05:10;13.30;99.90
8850;DHT22;5638;50.860;4.698;2022-11-15T16:07:37;13.20;99.90
8850;DHT22;5638;50.860;4.698;2022-11-15T16:10:30;13.10;99.90
8850;DHT22;5638;50.860;4.698;2022-11-15T16:12:57;13.10;99.90
8850;DHT22;5638;50.860;4.698;2022-11-15T16:15:25;13.20;99.90
8850;DHT22;5638;50.860;4.698;2022-11-15T16:17:54;13.10;99.90
8850;DHT22;5638;50.860;4.698;2022-11-15T16:20:40;13.20;99.90
8850;DHT22;5638;50.860;4.698;2022-11-15T16:23:13;13.10;99.90
8850;DHT22;5638;50.860;4.698;2022-11-15T16:25:41;13.10;99.90
8850;DHT22;5638;50.860;4.698;2022-11-15T16:28:23;13.10;99.90
8850;DHT22;5638;50.860;4.698;2022-11-15T16:31:10;13.10;99.90
8850;DHT22;5638;50.860;4.698;2022-11-15T16:33:38;13.00;99.90
8850;DHT22;5638;50.860;4.698;2022-11-15T16:36:18;13.00;99.90
8850;DHT22;5638;50.860;4.698;2022-11-15T16:38:44;13.00;99.90
8850;DHT22;5638;50.860;4.698;2022-11-15T16:41:10;13.00;99.90
8850;DHT22;5638;50.860;4.698;2022-11-15T16:43:36;13.00;99.90
8850;DHT22;5638;50.860;4.698;2022-11-15T16:46:22;13.00;99.90
8850;DHT22;5638;50.860;4.698;2022-11-15T16:48:50;13.00;99.90
8850;DHT22;5638;50.860;4.698;2022-11-15T16:51:16;12.90;99.90
8850;DHT22;5638;50.860;4.698;2022-11-15T16:53:43;13.00;99.90
8850;DHT22;5638;50.860;4.698;2022-11-15T16:58:48;13.00;99.90
8850;DHT22;5638;50.860;4.698;2022-11-15T17:01:30;12.90;99.90
8850;DHT22;5638;50.860;4.698;2022-11-15T17:03:57;12.90;99.90
8850;DHT22;5638;50.860;4.698;2022-11-15T17:06:25;13.00;99.90
8850;DHT22;5638;50.860;4.698;2022-11-15T17:08:51;13.00;99.90
8850;DHT22;5638;50.860;4.698;2022-11-15T17:11:20;13.00;99.90
8850;DHT22;5638;50.860;4.698;2022-11-15T17:13:46;13.00;99.90
8850;DHT22;5638;50.860;4.698;2022-11-15T17:16:16;13.00;99.90
8850;DHT22;5638;50.860;4.698;2022-11-15T17:18:43;13.00;99.90
8850;DHT22;5638;50.860;4.698;2022-11-15T17:21:14;13.00;99.90
8850;DHT22;5638;50.860;4.698;2022-11-15T17:23:42;13.10;99.90
8850;DHT22;5638;50.860;4.698;2022-11-15T17:26:10;13.10;99.90
8850;DHT22;5638;50.860;4.698;2022-11-15T17:28:37;13.00;99.90
8850;DHT22;5638;50.860;4.698;2022-11-15T17:31:11;13.00;99.90
8850;DHT22;5638;50.860;4.698;2022-11-15T17:33:39;13.00;99.90
8850;DHT22;5638;50.860;4.698;2022-11-15T17:36:09;13.00;99.90
8850;DHT22;5638;50.860;4.698;2022-11-15T17:38:36;13.10;99.90
8850;DHT22;5638;50.860;4.698;2022-11-15T17:43:32;13.00;99.90
8850;DHT22;5638;50.860;4.698;2022-11-15T17:46:01;12.90;99.90
8850;DHT22;5638;50.860;4.698;2022-11-15T17:48:30;12.90;99.90
8850;DHT22;5638;50.860;4.698;2022-11-15T17:51:04;13.00;99.90
8850;DHT22;5638;50.860;4.698;2022-11-15T17:53:36;13.00;99.90
8850;DHT22;5638;50.860;4.698;2022-11-15T17:58:41;13.00;99.90
8850;DHT22;5638;50.860;4.698;2022-11-15T18:01:34;13.00;99.90
8850;DHT22;5638;50.860;4.698;2022-11-15T18:04:02;12.90;99.90
8850;DHT22;5638;50.860;4.698;2022-11-15T18:06:33;12.90;99.90
8850;DHT22;5638;50.860;4.698;2022-11-15T18:09:01;12.90;99.90
8850;DHT22;5638;50.860;4.698;2022-11-15T18:11:36;13.00;99.90
8850;DHT22;5638;50.860;4.698;2022-11-15T18:14:11;13.00;99.90
8850;DHT22;5638;50.860;4.698;2022-11-15T18:16:39;13.00;99.90
8850;DHT22;5638;50.860;4.698;2022-11-15T18:19:05;13.00;99.90
8850;DHT22;5638;50.860;4.698;2022-11-15T18:21:37;13.00;99.90
8850;DHT22;5638;50.860;4.698;2022-11-15T18:24:34;13.00;99.90
8850;DHT22;5638;50.860;4.698;2022-11-15T18:27:04;12.90;99.90
8850;DHT22;5638;50.860;4.698;2022-11-15T18:29:30;12.90;99.90
8850;DHT22;5638;50.860;4.698;2022-11-15T18:31:59;13.00;99.90
8850;DHT22;5638;50.860;4.698;2022-11-15T18:34:26;13.00;99.90
8850;DHT22;5638;50.860;4.698;2022-11-15T18:36:56;13.10;99.90
8850;DHT22;5638;50.860;4.698;2022-11-15T18:39:22;13.10;99.90
8850;DHT22;5638;50.860;4.698;2022-11-15T18:41:48;13.10;99.90
8850;DHT22;5638;50.860;4.698;2022-11-15T18:44:15;13.00;99.90
8850;DHT22;5638;50.860;4.698;2022-11-15T18:46:42;13.00;99.90
8850;DHT22;5638;50.860;4.698;2022-11-15T18:49:12;13.00;99.90
8850;DHT22;5638;50.860;4.698;2022-11-15T18:51:39;13.00;99.90
8850;DHT22;5638;50.860;4.698;2022-11-15T18:54:10;13.10;99.90
8850;DHT22;5638;50.860;4.698;2022-11-15T18:56:38;13.10;99.90